Time;durP1;ratioP1;P1;durP2;ratioP2;P2;SDS_P1;SDS_P2;PMS_P1;PMS_P2;Temp;Humidity;BMP_temperature;BMP_pressure;BME280_temperature;BME280_humidity;BME280_pressure;Samples;Min_cycle;Max_cycle;Signal;HPM_P1;HPM_P2
2023/12/14 00:00:46;;;;;;;0.40;0.35;;;17.60;71.10;;;;;;5027134;28;20525;-92
2023/12/14 00:03:15;;;;;;;0.50;0.50;;;17.50;71.00;;;;;;5037177;28;20071;-91
2023/12/14 00:05:41;;;;;;;0.70;0.70;;;17.50;71.00;;;;;;5032493;28;20106;-91
2023/12/14 00:08:07;;;;;;;0.30;0.30;;;17.50;71.00;;;;;;5023767;28;20032;-93
2023/12/14 00:10:33;;;;;;;0.60;0.60;;;17.50;71.00;;;;;;5023541;28;20037;-94
2023/12/14 00:12:58;;;;;;;0.40;0.40;;;17.50;71.00;;;;;;5026595;28;20041;-94
2023/12/14 00:15:25;;;;;;;0.50;0.50;;;17.50;71.00;;;;;;5075997;28;20059;-92
2023/12/14 00:17:50;;;;;;;0.60;0.55;;;17.50;71.00;;;;;;5045751;28;20131;-94
2023/12/14 00:20:16;;;;;;;0.70;0.40;;;17.50;71.00;;;;;;5058007;28;20071;-90
2023/12/14 00:22:45;;;;;;;0.40;0.40;;;17.50;71.00;;;;;;5016764;28;20143;-91
2023/12/14 00:25:11;;;;;;;0.40;0.30;;;17.50;71.10;;;;;;5056846;28;20059;-91
2023/12/14 00:27:37;;;;;;;0.35;0.35;;;17.40;70.90;;;;;;5044614;28;20546;-91
2023/12/14 00:30:03;;;;;;;0.50;0.50;;;17.40;70.90;;;;;;5032069;28;20489;-91
2023/12/14 00:32:29;;;;;;;0.45;0.45;;;17.50;70.90;;;;;;5014017;28;20052;-90
2023/12/14 00:34:55;;;;;;;0.30;0.30;;;17.40;70.80;;;;;;5030950;28;20094;-91
2023/12/14 00:37:21;;;;;;;0.45;0.45;;;17.40;71.00;;;;;;5029266;28;20116;-91
2023/12/14 00:39:46;;;;;;;0.40;0.40;;;17.40;71.00;;;;;;5046264;28;20050;-92
2023/12/14 00:42:12;;;;;;;0.50;0.50;;;17.40;70.90;;;;;;5076598;28;20601;-91
2023/12/14 00:44:38;;;;;;;0.50;0.50;;;17.40;71.00;;;;;;5030490;28;20509;-91
2023/12/14 00:47:04;;;;;;;0.50;0.50;;;17.40;71.00;;;;;;5012609;28;20291;-92
2023/12/14 00:49:33;;;;;;;0.40;0.40;;;17.40;71.00;;;;;;5012488;28;20059;-92
2023/12/14 00:52:00;;;;;;;0.50;0.50;;;17.40;71.00;;;;;;5025435;28;20044;-92
2023/12/14 00:54:25;;;;;;;0.40;0.30;;;17.40;70.90;;;;;;5036148;28;21008;-93
2023/12/14 00:56:55;;;;;;;0.30;0.30;;;17.40;71.00;;;;;;5025916;28;20038;-88
2023/12/14 00:59:21;;;;;;;1.23;0.45;;;17.40;71.00;;;;;;5053178;28;20044;-88
2023/12/14 01:01:57;;;;;;;0.40;0.40;;;17.30;70.90;;;;;;5070267;28;20112;-89
2023/12/14 01:04:29;;;;;;;0.57;0.50;;;17.40;71.00;;;;;;5061306;28;20048;-90
2023/12/14 01:06:55;;;;;;;0.35;0.35;;;17.30;71.00;;;;;;5028630;28;20044;-90
2023/12/14 01:09:20;;;;;;;0.20;0.20;;;17.30;70.90;;;;;;5015600;28;20056;-91
2023/12/14 01:11:46;;;;;;;0.30;0.30;;;17.30;70.90;;;;;;5048821;28;20524;-90
2023/12/14 01:14:12;;;;;;;0.30;0.25;;;17.30;70.90;;;;;;5061248;28;20053;-90
2023/12/14 01:16:38;;;;;;;0.50;0.40;;;17.30;70.90;;;;;;5053087;28;20041;-90
2023/12/14 01:19:05;;;;;;;0.40;0.40;;;17.30;71.00;;;;;;5052398;28;20048;-90
2023/12/14 01:21:32;;;;;;;0.22;0.22;;;17.30;70.80;;;;;;5033641;28;20067;-90
2023/12/14 01:23:58;;;;;;;0.45;0.30;;;17.30;70.90;;;;;;5042353;28;20094;-88
2023/12/14 01:26:24;;;;;;;0.22;0.22;;;17.30;70.90;;;;;;5046536;28;20063;-88
2023/12/14 01:28:49;;;;;;;0.40;0.40;;;17.30;70.80;;;;;;5027877;28;20040;-88
2023/12/14 01:31:15;;;;;;;0.30;0.30;;;17.20;70.90;;;;;;5028679;28;20025;-88
2023/12/14 01:33:41;;;;;;;0.30;0.30;;;17.20;70.90;;;;;;5029835;28;20033;-88
2023/12/14 01:36:08;;;;;;;0.40;0.40;;;17.20;70.80;;;;;;5042709;28;20402;-90
2023/12/14 01:38:33;;;;;;;0.28;0.28;;;17.20;70.80;;;;;;5042945;28;20080;-91
2023/12/14 01:41:02;;;;;;;1.05;0.45;;;17.20;70.90;;;;;;5047838;28;20076;-89
2023/12/14 01:43:27;;;;;;;0.30;0.30;;;17.20;70.80;;;;;;5034219;28;20029;-90
2023/12/14 01:45:56;;;;;;;0.47;0.47;;;17.20;70.90;;;;;;5019572;28;20044;-91
2023/12/14 01:48:25;;;;;;;0.22;0.22;;;17.20;70.90;;;;;;5030016;28;20045;-91
2023/12/14 01:50:51;;;;;;;0.20;0.20;;;17.20;70.10;;;;;;5041978;28;20498;-91
2023/12/14 01:53:16;;;;;;;0.20;0.20;;;17.20;70.70;;;;;;5047702;28;20082;-91
2023/12/14 01:55:43;;;;;;;0.52;0.30;;;17.20;70.40;;;;;;5049672;28;20048;-91
2023/12/14 01:58:08;;;;;;;0.30;0.30;;;17.20;70.50;;;;;;5019105;28;20036;-89
2023/12/14 02:00:41;;;;;;;0.30;0.30;;;17.20;70.70;;;;;;5012711;28;20091;-91
2023/12/14 02:03:09;;;;;;;0.40;0.30;;;17.20;70.40;;;;;;5032172;28;20048;-90
2023/12/14 02:05:36;;;;;;;0.30;0.30;;;17.20;70.30;;;;;;5020906;28;20056;-92
2023/12/14 02:08:01;;;;;;;0.30;0.30;;;17.20;70.50;;;;;;5027347;28;20033;-91
2023/12/14 02:10:27;;;;;;;0.47;0.40;;;17.20;70.10;;;;;;5028001;28;20124;-91
2023/12/14 02:12:53;;;;;;;0.28;0.28;;;17.20;70.70;;;;;;5070047;28;20123;-93
2023/12/14 02:15:20;;;;;;;0.20;0.13;;;17.20;69.80;;;;;;5033344;28;20072;-92
2023/12/14 02:17:46;;;;;;;3.17;0.35;;;17.20;69.80;;;;;;5058779;28;20064;-92
2023/12/14 02:20:17;;;;;;;0.30;0.30;;;17.20;69.70;;;;;;5028635;28;20045;-90
2023/12/14 02:22:54;;;;;;;0.50;0.28;;;17.20;69.70;;;;;;5038536;28;20049;-92
2023/12/14 02:25:24;;;;;;;0.20;0.20;;;17.20;70.50;;;;;;5042700;28;20047;-92
2023/12/14 02:27:51;;;;;;;0.82;0.45;;;17.20;69.70;;;;;;5032822;28;20131;-91
2023/12/14 02:30:20;;;;;;;0.55;0.32;;;17.10;69.50;;;;;;5063142;28;20040;-91
2023/12/14 02:32:47;;;;;;;0.40;0.40;;;17.10;70.20;;;;;;5058752;28;20048;-92
2023/12/14 02:35:18;;;;;;;0.43;0.25;;;17.20;69.50;;;;;;5025830;28;20045;-92
2023/12/14 02:37:47;;;;;;;0.35;0.35;;;17.10;69.60;;;;;;5029552;28;20143;-91
2023/12/14 02:40:16;;;;;;;0.90;0.30;;;17.10;69.50;;;;;;5016866;28;20041;-90
2023/12/14 02:42:42;;;;;;;0.30;0.30;;;17.10;69.60;;;;;;5024721;28;20611;-90
2023/12/14 02:45:08;;;;;;;0.43;0.40;;;17.10;69.40;;;;;;5056044;28;20514;-90
2023/12/14 02:47:35;;;;;;;0.30;0.30;;;17.10;69.30;;;;;;5045211;28;20048;-90
2023/12/14 02:50:01;;;;;;;0.30;0.30;;;17.10;69.50;;;;;;5050709;28;20020;-90
2023/12/14 02:52:27;;;;;;;0.20;0.20;;;17.10;69.40;;;;;;5032460;28;20032;-91
2023/12/14 02:54:53;;;;;;;0.65;0.30;;;17.10;69.40;;;;;;5050852;28;20028;-89
2023/12/14 02:57:19;;;;;;;0.40;0.40;;;17.10;69.30;;;;;;5048458;28;20063;-90
2023/12/14 02:59:45;;;;;;;0.30;0.30;;;17.10;69.40;;;;;;5051540;28;20019;-91
2023/12/14 03:02:20;;;;;;;0.40;0.20;;;17.10;69.40;;;;;;5067164;28;20028;-88
2023/12/14 03:04:46;;;;;;;0.38;0.38;;;17.10;69.30;;;;;;5063892;28;20036;-87
2023/12/14 03:07:33;;;;;;;0.30;0.30;;;17.10;69.40;;;;;;5066507;28;20050;-87
2023/12/14 03:09:59;;;;;;;0.50;0.40;;;17.10;69.50;;;;;;5058639;28;20064;-87
2023/12/14 03:12:25;;;;;;;0.30;0.30;;;17.10;69.50;;;;;;5063577;28;20063;-87
2023/12/14 03:14:50;;;;;;;0.47;0.47;;;17.00;69.80;;;;;;5050173;28;20013;-88
2023/12/14 03:17:17;;;;;;;0.65;0.40;;;17.10;69.50;;;;;;5043915;28;20033;-88
2023/12/14 03:19:46;;;;;;;0.88;0.40;;;17.10;69.50;;;;;;5059997;28;20741;-88
2023/12/14 03:22:12;;;;;;;0.43;0.30;;;17.00;69.20;;;;;;5064091;28;20025;-88
2023/12/14 03:24:42;;;;;;;0.63;0.50;;;17.10;69.40;;;;;;5058625;28;20019;-88
2023/12/14 03:27:11;;;;;;;0.20;0.20;;;17.00;69.30;;;;;;5077769;28;20032;-89
2023/12/14 03:29:36;;;;;;;0.30;0.30;;;17.10;69.50;;;;;;5050243;28;20048;-88
2023/12/14 03:32:03;;;;;;;0.85;0.30;;;17.00;69.30;;;;;;5046862;28;20067;-88
2023/12/14 03:34:28;;;;;;;0.38;0.35;;;17.00;69.30;;;;;;5032002;28;20025;-87
2023/12/14 03:36:54;;;;;;;0.52;0.30;;;17.00;69.20;;;;;;5059134;28;20036;-87
2023/12/14 03:39:20;;;;;;;0.50;0.30;;;17.00;69.30;;;;;;5043388;28;20089;-87
2023/12/14 03:41:47;;;;;;;0.63;0.30;;;17.00;69.30;;;;;;5065654;28;20107;-86
2023/12/14 03:44:13;;;;;;;1.42;0.40;;;17.00;69.40;;;;;;5065149;28;20031;-91
2023/12/14 03:46:39;;;;;;;0.30;0.30;;;17.00;69.40;;;;;;5031714;28;20032;-91
2023/12/14 03:49:05;;;;;;;0.38;0.38;;;17.00;69.40;;;;;;5036344;28;20036;-92
2023/12/14 03:51:31;;;;;;;0.40;0.30;;;17.00;69.40;;;;;;5060021;28;20493;-91
2023/12/14 03:53:57;;;;;;;0.43;0.40;;;17.00;69.30;;;;;;5035292;28;20028;-91
2023/12/14 03:56:22;;;;;;;0.35;0.35;;;17.00;69.40;;;;;;5052254;28;20509;-90
2023/12/14 03:58:48;;;;;;;0.50;0.30;;;17.00;69.30;;;;;;5031109;28;20115;-90
2023/12/14 04:01:18;;;;;;;0.40;0.40;;;17.00;69.30;;;;;;5070232;28;20029;-91
2023/12/14 04:03:45;;;;;;;0.57;0.43;;;17.00;69.40;;;;;;5058297;28;20097;-91
2023/12/14 04:06:14;;;;;;;0.40;0.30;;;17.00;69.40;;;;;;5045562;28;20048;-90
2023/12/14 04:08:40;;;;;;;0.40;0.40;;;17.00;69.40;;;;;;5069556;28;20033;-91
2023/12/14 04:11:06;;;;;;;0.38;0.38;;;17.00;69.40;;;;;;5065463;28;20107;-94
2023/12/14 04:13:36;;;;;;;0.32;0.30;;;17.00;69.40;;;;;;5052615;28;20036;-94
2023/12/14 04:16:02;;;;;;;0.40;0.40;;;16.90;69.30;;;;;;5068546;28;20024;-94
2023/12/14 04:18:28;;;;;;;0.52;0.22;;;16.90;69.40;;;;;;5055999;28;20093;-93
2023/12/14 04:20:54;;;;;;;0.30;0.30;;;16.90;69.30;;;;;;5052290;28;20582;-94
2023/12/14 04:23:20;;;;;;;0.82;0.43;;;16.90;69.60;;;;;;5052845;28;20111;-90
2023/12/14 04:25:46;;;;;;;0.52;0.25;;;17.00;69.50;;;;;;5032017;28;20410;-91
2023/12/14 04:28:15;;;;;;;0.47;0.30;;;16.90;69.60;;;;;;5066281;28;20029;-92
2023/12/14 04:30:42;;;;;;;0.47;0.30;;;17.00;69.40;;;;;;5028049;28;20017;-91
2023/12/14 04:33:08;;;;;;;0.52;0.35;;;16.90;69.60;;;;;;5067870;28;20384;-92
2023/12/14 04:35:36;;;;;;;0.25;0.20;;;16.90;69.30;;;;;;5053541;28;20021;-91
2023/12/14 04:38:02;;;;;;;1.30;0.40;;;16.90;69.40;;;;;;5040104;28;20020;-91
2023/12/14 04:40:33;;;;;;;0.55;0.30;;;16.90;69.30;;;;;;5069282;28;20046;-91
2023/12/14 04:43:03;;;;;;;0.45;0.40;;;16.90;69.50;;;;;;5070009;28;20036;-91
2023/12/14 04:45:29;;;;;;;0.45;0.45;;;16.90;69.40;;;;;;5036049;28;20031;-91
2023/12/14 04:47:55;;;;;;;0.40;0.40;;;16.90;69.50;;;;;;5068858;28;20078;-87
2023/12/14 04:50:21;;;;;;;0.20;0.20;;;16.90;70.50;;;;;;5064916;28;20044;-89
2023/12/14 04:52:47;;;;;;;0.40;0.40;;;16.90;70.80;;;;;;5070418;28;20059;-90
2023/12/14 04:55:16;;;;;;;0.40;0.40;;;16.90;70.70;;;;;;5036806;28;20044;-90
2023/12/14 04:57:42;;;;;;;0.30;0.30;;;16.90;71.00;;;;;;5054111;28;20031;-90
2023/12/14 05:00:08;;;;;;;0.30;0.30;;;16.90;71.20;;;;;;5068425;28;20036;-89
2023/12/14 05:02:34;;;;;;;0.60;0.50;;;16.90;71.20;;;;;;5066132;28;20056;-89
2023/12/14 05:05:00;;;;;;;0.20;0.20;;;16.90;71.30;;;;;;5086170;28;20033;-89
2023/12/14 05:07:26;;;;;;;0.80;0.38;;;17.00;71.30;;;;;;5034893;28;20029;-89
2023/12/14 05:09:55;;;;;;;0.40;0.40;;;16.90;71.10;;;;;;5066719;28;20085;-89
2023/12/14 05:12:21;;;;;;;0.38;0.22;;;16.90;71.10;;;;;;5048201;28;20525;-90
2023/12/14 05:14:47;;;;;;;0.40;0.30;;;16.90;71.10;;;;;;5082128;28;20490;-86
2023/12/14 05:17:13;;;;;;;0.32;0.28;;;16.90;71.10;;;;;;5044077;28;20043;-86
2023/12/14 05:19:39;;;;;;;0.30;0.30;;;16.90;71.00;;;;;;5084431;28;20028;-90
2023/12/14 05:22:05;;;;;;;0.50;0.50;;;16.90;70.90;;;;;;5066602;28;20052;-90
2023/12/14 05:24:31;;;;;;;0.40;0.40;;;16.90;70.70;;;;;;5070893;28;20029;-89
2023/12/14 05:26:57;;;;;;;0.40;0.38;;;16.90;70.70;;;;;;5065528;28;20502;-92
2023/12/14 05:29:23;;;;;;;0.80;0.30;;;16.90;70.70;;;;;;5070636;28;20107;-92
2023/12/14 05:31:49;;;;;;;0.65;0.65;;;16.90;70.70;;;;;;5053773;28;20028;-91
2023/12/14 05:34:15;;;;;;;0.20;0.20;;;16.90;70.60;;;;;;5037003;28;20021;-91
2023/12/14 05:36:42;;;;;;;0.47;0.40;;;16.90;70.60;;;;;;5070701;28;20508;-92
2023/12/14 05:39:07;;;;;;;0.55;0.30;;;16.90;70.60;;;;;;5033146;28;20056;-91
2023/12/14 05:41:33;;;;;;;0.20;0.20;;;16.90;70.40;;;;;;5046085;28;20033;-91
2023/12/14 05:43:59;;;;;;;0.38;0.30;;;16.90;70.30;;;;;;5058340;28;20031;-90
2023/12/14 05:46:25;;;;;;;0.55;0.38;;;16.90;70.50;;;;;;5050584;28;20025;-88
2023/12/14 05:48:51;;;;;;;0.30;0.30;;;16.80;70.40;;;;;;5037367;28;20048;-93
2023/12/14 05:51:32;;;;;;;0.57;0.30;;;16.80;70.40;;;;;;5071002;28;20028;-93
2023/12/14 05:53:58;;;;;;;0.47;0.30;;;16.80;70.40;;;;;;5065987;28;20402;-94
2023/12/14 05:56:25;;;;;;;0.50;0.30;;;16.80;70.40;;;;;;5072156;28;20024;-93
2023/12/14 05:58:51;;;;;;;0.40;0.30;;;16.80;70.40;;;;;;5066651;28;20017;-91
2023/12/14 06:01:20;;;;;;;0.25;0.20;;;16.80;70.30;;;;;;5070677;28;20494;-90
2023/12/14 06:03:46;;;;;;;0.28;0.28;;;16.80;70.30;;;;;;5065741;28;20020;-90
2023/12/14 06:06:15;;;;;;;0.35;0.30;;;16.80;70.40;;;;;;5037562;28;20122;-88
2023/12/14 06:08:41;;;;;;;0.30;0.30;;;16.80;70.30;;;;;;5049620;28;20028;-88
2023/12/14 06:11:08;;;;;;;0.38;0.30;;;16.80;70.40;;;;;;5059918;28;20487;-85
2023/12/14 06:13:34;;;;;;;0.60;0.32;;;16.80;70.80;;;;;;5061102;28;20120;-86
2023/12/14 06:16:00;;;;;;;1.45;0.30;;;16.80;70.60;;;;;;5061170;28;20055;-90
2023/12/14 06:18:26;;;;;;;0.55;0.47;;;16.80;70.90;;;;;;5047468;28;20025;-89
2023/12/14 06:20:51;;;;;;;0.55;0.32;;;16.90;70.90;;;;;;5054211;28;20119;-94
2023/12/14 06:23:18;;;;;;;0.30;0.25;;;16.90;70.80;;;;;;5032229;28;20061;-93
2023/12/14 06:25:44;;;;;;;0.40;0.40;;;16.80;70.80;;;;;;5072049;28;20116;-91
2023/12/14 06:28:11;;;;;;;1.40;0.40;;;16.90;70.80;;;;;;5068203;28;20109;-91
2023/12/14 06:30:37;;;;;;;0.20;0.20;;;16.80;71.80;;;;;;5044270;28;20465;-83
2023/12/14 06:33:03;;;;;;;0.30;0.30;;;16.90;70.80;;;;;;5030756;28;20047;-86
2023/12/14 06:35:28;;;;;;;1.13;0.38;;;16.90;71.40;;;;;;5024685;28;20048;-84
2023/12/14 06:37:57;;;;;;;0.93;0.32;;;16.80;71.10;;;;;;5037297;28;20041;-85
2023/12/14 06:40:23;;;;;;;1.63;0.30;;;16.80;70.70;;;;;;5052082;28;20041;-87
2023/12/14 06:42:49;;;;;;;5.05;0.32;;;16.80;70.80;;;;;;5033919;28;20040;-85
2023/12/14 06:45:15;;;;;;;0.55;0.40;;;16.80;70.90;;;;;;5040277;28;20114;-84
2023/12/14 06:47:42;;;;;;;0.20;0.20;;;16.80;71.00;;;;;;5049136;28;20052;-85
2023/12/14 06:50:09;;;;;;;0.30;0.22;;;16.80;70.90;;;;;;5052389;28;20518;-82
2023/12/14 06:52:34;;;;;;;0.35;0.25;;;16.80;71.00;;;;;;5059434;28;20037;-82
2023/12/14 06:55:00;;;;;;;0.75;0.40;;;16.80;70.60;;;;;;5058898;28;20041;-84
2023/12/14 06:57:26;;;;;;;1.30;0.20;;;16.80;70.80;;;;;;5053295;28;20037;-84
2023/12/14 06:59:52;;;;;;;0.73;0.50;;;16.80;70.70;;;;;;5052483;28;20067;-86
2023/12/14 07:02:17;;;;;;;0.38;0.38;;;16.80;70.80;;;;;;5047054;28;20041;-84
2023/12/14 07:04:44;;;;;;;0.30;0.30;;;16.80;70.90;;;;;;5054529;28;20045;-84
2023/12/14 07:07:09;;;;;;;1.85;0.60;;;16.80;70.80;;;;;;5038401;28;20116;-87
2023/12/14 07:09:35;;;;;;;0.20;0.20;;;16.80;71.30;;;;;;5042553;28;20125;-89
2023/12/14 07:12:02;;;;;;;0.70;0.38;;;16.80;70.90;;;;;;5055061;28;20041;-85
2023/12/14 07:14:28;;;;;;;0.40;0.30;;;16.80;70.90;;;;;;5038793;28;20039;-90
2023/12/14 07:16:53;;;;;;;1.05;0.30;;;16.80;70.70;;;;;;5072823;28;20040;-88
2023/12/14 07:19:19;;;;;;;0.38;0.30;;;16.80;70.50;;;;;;5049510;28;20116;-85
2023/12/14 07:21:44;;;;;;;0.30;0.30;;;16.70;70.50;;;;;;5035851;28;20052;-95
2023/12/14 07:24:10;;;;;;;0.28;0.25;;;16.70;70.80;;;;;;5061612;28;20046;-91
2023/12/14 07:26:36;;;;;;;1.50;0.40;;;16.70;70.60;;;;;;5058047;28;20040;-88
2023/12/14 07:29:01;;;;;;;0.50;0.40;;;16.70;70.60;;;;;;5037872;28;20132;-88
2023/12/14 07:31:28;;;;;;;0.60;0.25;;;16.70;70.60;;;;;;5059404;28;20992;-87
2023/12/14 07:33:55;;;;;;;1.90;0.60;;;16.60;70.10;;;;;;5057033;28;20110;-87
2023/12/14 07:36:22;;;;;;;0.68;0.20;;;16.60;70.90;;;;;;5027100;28;20052;-88
2023/12/14 07:38:48;;;;;;;0.50;0.40;;;16.60;70.50;;;;;;5028879;28;20413;-91
2023/12/14 07:41:13;;;;;;;0.40;0.38;;;16.60;70.90;;;;;;5018247;28;20042;-91
2023/12/14 07:43:40;;;;;;;0.90;0.50;;;16.60;70.40;;;;;;5058454;28;20142;-96
2023/12/14 07:46:05;;;;;;;2.15;0.50;;;16.60;70.10;;;;;;5045502;28;20036;-95
2023/12/14 07:48:31;;;;;;;0.40;0.40;;;16.60;69.70;;;;;;5087580;28;20036;-95
2023/12/14 07:50:57;;;;;;;0.28;0.20;;;16.60;69.50;;;;;;5036801;28;20473;-95
2023/12/14 07:53:22;;;;;;;0.85;0.60;;;16.60;69.50;;;;;;5033008;28;20095;-94
2023/12/14 07:55:48;;;;;;;1.30;0.30;;;16.60;69.50;;;;;;5048207;28;20052;-89
2023/12/14 07:58:13;;;;;;;2.15;0.40;;;16.60;69.70;;;;;;5032843;28;20047;-89
2023/12/14 08:00:39;;;;;;;0.50;0.30;;;16.60;69.90;;;;;;5020049;28;20072;-89
2023/12/14 08:03:05;;;;;;;0.32;0.32;;;16.60;69.60;;;;;;5035432;28;20561;-88
2023/12/14 08:05:30;;;;;;;3.13;0.38;;;16.60;69.50;;;;;;5044718;28;20402;-89
2023/12/14 08:07:56;;;;;;;1.00;0.47;;;16.60;69.60;;;;;;5037736;28;20041;-89
2023/12/14 08:10:21;;;;;;;0.50;0.43;;;16.60;69.60;;;;;;5058276;28;20086;-89
2023/12/14 08:12:47;;;;;;;0.60;0.40;;;16.60;69.70;;;;;;5039822;28;20114;-90
2023/12/14 08:15:13;;;;;;;0.73;0.40;;;16.60;69.60;;;;;;5040120;28;20051;-89
2023/12/14 08:17:38;;;;;;;0.40;0.40;;;16.50;69.60;;;;;;5063444;28;20105;-89
2023/12/14 08:20:08;;;;;;;1.02;0.68;;;16.60;69.70;;;;;;5057513;28;20526;-89
2023/12/14 08:22:34;;;;;;;0.45;0.30;;;16.50;69.80;;;;;;5056062;28;20048;-89
2023/12/14 08:25:00;;;;;;;0.45;0.32;;;16.60;69.80;;;;;;5059338;28;20066;-89
2023/12/14 08:27:25;;;;;;;0.55;0.52;;;16.60;69.70;;;;;;5053328;28;20040;-88
2023/12/14 08:29:51;;;;;;;1.85;0.68;;;16.60;69.80;;;;;;5042194;28;20045;-89
2023/12/14 08:32:16;;;;;;;0.70;0.30;;;16.50;69.80;;;;;;5075051;28;20033;-89
2023/12/14 08:34:42;;;;;;;0.80;0.22;;;16.60;69.90;;;;;;5044826;28;20506;-88
2023/12/14 08:37:07;;;;;;;0.35;0.30;;;16.50;70.00;;;;;;5027475;28;20099;-89
2023/12/14 08:39:33;;;;;;;0.45;0.30;;;16.60;70.00;;;;;;5041609;28;20055;-88
2023/12/14 08:41:58;;;;;;;0.50;0.40;;;16.50;69.90;;;;;;5066032;28;20049;-89
2023/12/14 08:44:24;;;;;;;0.68;0.45;;;16.60;70.20;;;;;;5041825;28;20049;-89
2023/12/14 08:46:50;;;;;;;0.93;0.50;;;16.50;69.80;;;;;;5062016;28;20136;-89
2023/12/14 08:49:15;;;;;;;1.05;0.38;;;16.50;70.00;;;;;;5055071;28;23606;-89
2023/12/14 08:51:41;;;;;;;0.45;0.43;;;16.50;70.00;;;;;;5052010;28;20502;-88
2023/12/14 08:54:07;;;;;;;0.38;0.20;;;16.50;70.00;;;;;;5048937;28;20476;-89
2023/12/14 08:56:33;;;;;;;1.00;0.47;;;16.50;70.10;;;;;;5024761;28;20029;-88
2023/12/14 08:58:59;;;;;;;0.70;0.40;;;16.50;70.10;;;;;;5051603;28;20041;-89
2023/12/14 09:01:24;;;;;;;0.75;0.30;;;16.50;70.30;;;;;;5023439;28;20049;-89
2023/12/14 09:03:50;;;;;;;1.02;0.30;;;16.50;70.20;;;;;;5048344;28;20499;-88
2023/12/14 09:06:16;;;;;;;0.60;0.50;;;16.50;70.20;;;;;;5018373;28;20530;-89
2023/12/14 09:08:42;;;;;;;0.40;0.40;;;16.50;70.20;;;;;;5017641;28;20033;-89
2023/12/14 09:11:08;;;;;;;0.40;0.40;;;16.50;70.20;;;;;;5056483;28;20081;-89
2023/12/14 09:13:34;;;;;;;0.63;0.30;;;16.50;70.30;;;;;;5057135;28;20047;-89
2023/12/14 09:15:59;;;;;;;0.40;0.30;;;16.50;70.20;;;;;;5073681;28;20040;-89
2023/12/14 09:18:25;;;;;;;0.40;0.20;;;16.50;70.40;;;;;;5044522;28;20043;-88
2023/12/14 09:20:50;;;;;;;0.32;0.30;;;16.50;70.30;;;;;;5050081;28;20079;-89
2023/12/14 09:23:16;;;;;;;0.52;0.28;;;16.50;70.30;;;;;;5061107;28;20453;-89
2023/12/14 09:25:42;;;;;;;1.05;0.40;;;16.50;70.50;;;;;;5044607;28;20551;-88
2023/12/14 09:28:07;;;;;;;0.40;0.30;;;16.50;70.40;;;;;;5050584;28;20041;-89
2023/12/14 09:30:33;;;;;;;0.60;0.20;;;16.50;70.50;;;;;;5053177;28;20426;-88
2023/12/14 09:32:59;;;;;;;0.73;0.30;;;16.50;70.50;;;;;;5059919;28;20505;-89
2023/12/14 09:35:24;;;;;;;0.60;0.40;;;16.50;70.30;;;;;;5064332;28;20086;-88
2023/12/14 09:37:50;;;;;;;0.45;0.30;;;16.50;70.30;;;;;;5028989;28;20048;-89
2023/12/14 09:40:16;;;;;;;0.38;0.30;;;16.50;70.50;;;;;;5052708;28;20705;-89
2023/12/14 09:42:42;;;;;;;0.38;0.25;;;16.50;70.50;;;;;;5029470;28;20055;-89
2023/12/14 09:45:11;;;;;;;0.93;0.30;;;16.50;70.40;;;;;;5056816;28;20037;-89
2023/12/14 09:47:37;;;;;;;0.55;0.20;;;16.40;70.30;;;;;;5037580;28;20044;-89
2023/12/14 09:50:03;;;;;;;1.63;0.32;;;16.50;70.40;;;;;;5057386;28;20123;-88
2023/12/14 09:52:29;;;;;;;0.30;0.20;;;16.40;70.30;;;;;;5032547;28;20127;-85
2023/12/14 09:54:54;;;;;;;0.60;0.30;;;16.50;70.40;;;;;;5059028;28;20025;-88
2023/12/14 09:57:20;;;;;;;0.47;0.30;;;16.50;70.60;;;;;;5076645;28;20106;-89
2023/12/14 09:59:55;;;;;;;0.45;0.35;;;16.40;71.30;;;;;;5058501;28;20040;-88
2023/12/14 10:02:30;;;;;;;0.68;0.25;;;16.50;70.50;;;;;;5047595;28;20156;-89
2023/12/14 10:04:56;;;;;;;0.65;0.30;;;16.50;70.50;;;;;;5060364;28;20056;-88
2023/12/14 10:07:21;;;;;;;1.52;0.30;;;16.50;70.40;;;;;;5078126;28;20040;-88
2023/12/14 10:09:47;;;;;;;0.32;0.30;;;16.40;70.30;;;;;;5049385;28;20432;-88
2023/12/14 10:12:13;;;;;;;0.43;0.40;;;16.40;70.20;;;;;;5009928;28;20049;-89
2023/12/14 10:14:38;;;;;;;0.20;0.20;;;16.50;70.20;;;;;;5045729;28;20041;-88
2023/12/14 10:17:21;;;;;;;0.20;0.20;;;16.50;70.30;;;;;;5053114;28;20056;-87
2023/12/14 10:19:47;;;;;;;0.40;0.30;;;16.50;70.30;;;;;;5062031;28;20088;-88
2023/12/14 10:22:17;;;;;;;0.30;0.25;;;16.50;70.20;;;;;;5073721;28;20045;-88
2023/12/14 10:24:44;;;;;;;0.90;0.30;;;16.50;70.20;;;;;;5061119;28;20040;-89
2023/12/14 10:27:11;;;;;;;0.20;0.20;;;16.50;70.20;;;;;;5038512;28;20051;-88
2023/12/14 10:29:39;;;;;;;0.85;0.60;;;16.50;70.40;;;;;;5064846;28;20037;-88
2023/12/14 10:32:06;;;;;;;0.52;0.40;;;16.40;70.30;;;;;;5057816;28;20045;-88
2023/12/14 10:34:33;;;;;;;0.50;0.40;;;16.40;70.20;;;;;;5068769;28;20093;-88
2023/12/14 10:36:58;;;;;;;0.45;0.30;;;16.40;70.30;;;;;;5042773;28;20499;-88
2023/12/14 10:39:24;;;;;;;0.98;0.60;;;16.40;70.20;;;;;;5033307;28;20044;-89
2023/12/14 10:41:50;;;;;;;0.30;0.30;;;16.40;70.30;;;;;;5042014;28;20041;-89
2023/12/14 10:44:15;;;;;;;0.80;0.47;;;16.50;70.30;;;;;;5042515;28;20547;-87
2023/12/14 10:46:41;;;;;;;0.47;0.40;;;16.40;70.30;;;;;;5041441;28;20661;-88
2023/12/14 10:49:06;;;;;;;0.93;0.40;;;16.50;70.50;;;;;;5026718;28;20116;-88
2023/12/14 10:51:32;;;;;;;0.45;0.43;;;16.50;70.40;;;;;;5033734;28;20044;-86
2023/12/14 10:53:58;;;;;;;0.70;0.70;;;16.40;70.20;;;;;;5038979;28;20125;-88
2023/12/14 10:56:23;;;;;;;0.38;0.20;;;16.40;70.40;;;;;;5033167;28;20033;-89
2023/12/14 10:58:51;;;;;;;0.25;0.25;;;16.40;70.30;;;;;;5052770;28;20025;-88
2023/12/14 11:01:20;;;;;;;0.30;0.30;;;16.40;70.40;;;;;;5058768;28;20478;-88
2023/12/14 11:03:47;;;;;;;0.30;0.30;;;16.40;70.40;;;;;;5040929;28;20071;-88
2023/12/14 11:06:26;;;;;;;0.38;0.38;;;16.40;70.40;;;;;;5042279;28;20406;-88
2023/12/14 11:08:52;;;;;;;0.57;0.38;;;16.40;70.60;;;;;;5061943;28;20127;-88
2023/12/14 11:11:20;;;;;;;0.38;0.38;;;16.40;70.40;;;;;;5060056;28;20490;-88
2023/12/14 11:13:50;;;;;;;0.50;0.50;;;16.40;70.60;;;;;;5055591;28;20044;-88
2023/12/14 11:16:16;;;;;;;0.20;0.20;;;16.40;70.60;;;;;;5032274;28;20041;-88
2023/12/14 11:18:41;;;;;;;0.68;0.35;;;16.40;70.60;;;;;;5020577;28;20038;-88
2023/12/14 11:21:07;;;;;;;0.68;0.35;;;16.40;70.60;;;;;;5043191;28;20076;-88
2023/12/14 11:23:36;;;;;;;0.40;0.30;;;16.40;70.60;;;;;;5057880;28;20048;-89
2023/12/14 11:26:06;;;;;;;0.88;0.40;;;16.40;70.60;;;;;;5054709;28;20049;-88
2023/12/14 11:28:33;;;;;;;0.50;0.38;;;16.40;70.60;;;;;;5064300;28;20041;-88
2023/12/14 11:30:59;;;;;;;0.40;0.30;;;16.40;71.50;;;;;;5058608;28;20052;-89
2023/12/14 11:33:27;;;;;;;0.57;0.47;;;16.40;70.60;;;;;;5023456;28;20525;-88
2023/12/14 11:35:52;;;;;;;0.30;0.30;;;16.40;70.60;;;;;;5057312;28;20052;-87
2023/12/14 11:38:20;;;;;;;0.47;0.43;;;16.40;70.90;;;;;;5027183;28;20045;-87
2023/12/14 11:40:47;;;;;;;0.52;0.43;;;16.40;70.70;;;;;;5044239;28;20033;-86
2023/12/14 11:43:13;;;;;;;0.40;0.30;;;16.40;70.60;;;;;;5071226;28;20102;-87
2023/12/14 11:45:39;;;;;;;0.30;0.30;;;16.40;70.50;;;;;;5068958;28;20040;-86
2023/12/14 11:48:05;;;;;;;0.60;0.60;;;16.40;70.70;;;;;;5073098;28;20048;-86
2023/12/14 11:50:33;;;;;;;0.40;0.30;;;16.40;70.60;;;;;;5060328;28;20064;-88
2023/12/14 11:53:00;;;;;;;0.30;0.30;;;16.40;70.70;;;;;;5046688;28;20041;-88
2023/12/14 11:55:26;;;;;;;0.68;0.40;;;16.40;70.50;;;;;;5042589;28;20048;-87
2023/12/14 11:57:52;;;;;;;0.43;0.43;;;16.40;70.90;;;;;;5042481;28;20581;-91
2023/12/14 12:00:18;;;;;;;44.40;12.23;;;16.50;70.30;;;;;;4699209;28;9999811;-91
2023/12/14 12:02:43;;;;;;;308.08;180.68;;;16.60;70.20;;;;;;5025102;28;20041;-95
2023/12/14 12:05:13;;;;;;;335.65;214.70;;;16.60;70.20;;;;;;5040552;28;20079;-93
2023/12/14 12:07:43;;;;;;;291.48;171.13;;;16.60;70.50;;;;;;5031328;28;20136;-92
2023/12/14 12:10:09;;;;;;;256.20;142.77;;;16.60;71.10;;;;;;5057075;28;20045;-92
2023/12/14 12:12:35;;;;;;;214.45;117.97;;;16.60;70.50;;;;;;5036074;28;20079;-92
2023/12/14 12:15:00;;;;;;;160.93;84.25;;;16.60;70.30;;;;;;5024194;28;20068;-89
2023/12/14 12:17:26;;;;;;;165.50;83.22;;;16.60;70.30;;;;;;5055957;28;20045;-92
2023/12/14 12:19:52;;;;;;;156.68;78.68;;;16.60;70.60;;;;;;5049908;28;20041;-92
2023/12/14 12:22:17;;;;;;;150.98;79.18;;;16.60;70.70;;;;;;5056703;28;20052;-92
2023/12/14 12:24:43;;;;;;;144.27;68.22;;;16.60;70.50;;;;;;5057591;28;20044;-90
2023/12/14 12:27:09;;;;;;;147.95;76.07;;;16.60;70.90;;;;;;5037152;28;20538;-93
2023/12/14 12:29:34;;;;;;;143.45;71.63;;;16.60;70.80;;;;;;5026381;28;20041;-89
2023/12/14 12:32:00;;;;;;;140.73;70.70;;;16.70;70.70;;;;;;5040953;28;20041;-94
2023/12/14 12:34:26;;;;;;;129.50;64.65;;;16.60;71.00;;;;;;5064504;28;20062;-94
2023/12/14 12:36:51;;;;;;;131.57;60.75;;;16.60;70.40;;;;;;5063741;28;20331;-90
2023/12/14 12:39:17;;;;;;;127.22;62.60;;;16.60;70.50;;;;;;5029326;28;20427;-91
2023/12/14 12:41:43;;;;;;;118.63;60.58;;;16.60;70.40;;;;;;5037239;28;20048;-91